Terminal Aerodrome Forecast
Issued by NWS Cleveland, OH

Home | Current Version | Previous Version | Text Only | Print | Product List | Glossary On
Versions: 1 2 3 4 5 6 7 8 9 10 11 12 13 14 15 16
007
FTUS41 KCLE 232341
TAFTOL
TAF
KTOL 232341Z 2400/2424 28008KT P6SM SCT040 BKN100
     FM240300 28006KT P6SM SCT100
     FM241000 27008KT P6SM SCT080
     FM241600 27012G20KT P6SM BKN045
     FM242200 27010KT P6SM BKN080=

USA.gov is the U.S. government's official web portal to all federal, state and local government web resources and services.